Wan Hai 267 — 9VDB6 — position and weather

sailwx.info

Track history (hours):
 
Tides and Currents Weather Stations Pressure Air Temp Water Temp Dewpoint Dewpoint Depression Visibility Wind Speed Wind Dir Waves Ship Positions

Wan Hai 267

Last reported at 2017-Oct-15 00:48 UTC. Time now 2017-Oct-17 16:54 UTC.
Position N 34°52' E 139°20'.

Length 198 m; draft 9.1 m.

Type: Cargo ship. MMSI: 564527118.

Date/timePositionNaut miles runAvg speedWind from/ knotsBaromVisibWave heightAir tempDewpointWater temp
2017-Oct-15 00:48N 34°52' E 139°20'515.4
2017-Oct-15 00:30N 34°55' E 139°24'816.2
2017-Oct-15 00:00N 35°00' E 139°32'917.7
2017-Oct-14 23:30N 35°05' E 139°40'815.2
2017-Oct-14 23:00N 35°12' E 139°46'611.4
2017-Oct-14 22:31N 35°17' E 139°45'612.5
2017-Oct-14 22:01N 35°23' E 139°42'814.9
2017-Oct-14 21:30N 35°28' E 139°49'612.2
2017-Oct-14 21:00N 35°34' E 139°48'2 0.2
2017-Oct-14 08:56N 35°36' E 139°46'3 6.0
2017-Oct-14 08:29N 35°34' E 139°49'611.7
2017-Oct-14 08:00N 35°30' E 139°53'613.0
2017-Oct-14 07:31N 35°26' E 139°47'5 8.5
2017-Oct-14 06:58N 35°27' E 139°41'0 0.4
2017-Oct-14 06:28N 35°26' E 139°41'0 0.0
2017-Oct-14 05:58N 35°26' E 139°41'0 0.0
2017-Oct-14 05:28N 35°26' E 139°41'0 0.0
2017-Oct-14 04:58N 35°26' E 139°41'0 0.0
2017-Oct-14 04:28N 35°26' E 139°41'0 0.0
2017-Oct-14 03:58N 35°26' E 139°41'0 0.0
2017-Oct-14 03:28N 35°26' E 139°41'0 0.0
2017-Oct-14 02:58N 35°26' E 139°41'0 0.0
2017-Oct-14 02:28N 35°26' E 139°41'0 0.0
2017-Oct-14 01:58N 35°26' E 139°41'0 0.0
2017-Oct-14 01:28N 35°26' E 139°41'0 0.0
2017-Oct-14 00:58N 35°26' E 139°41'0 0.0
2017-Oct-14 00:28N 35°26' E 139°41'0 0.0
2017-Oct-13 23:58N 35°26' E 139°41'0 0.0
2017-Oct-13 23:28N 35°26' E 139°41'0 0.0
2017-Oct-13 22:58N 35°26' E 139°41'1 2.2
2017-Oct-13 22:30N 35°26' E 139°42'4 8.3
2017-Oct-13 22:00N 35°22' E 139°43'249 5.4
2017-Oct-12 00:11N 34°02' E 134°57'517.6
2017-Oct-11 23:54N 34°07' E 134°56'615.6
2017-Oct-11 23:30N 34°13' E 134°58'612.8
2017-Oct-11 23:00N 34°20' E 134°59'816.8
2017-Oct-11 22:30N 34°26' E 135°06'917.7
2017-Oct-11 22:00N 34°32' E 135°13'612.0
2017-Oct-11 21:30N 34°37' E 135°16'4 6.7
2017-Oct-11 20:58N 34°41' E 135°15'0 0.0
2017-Oct-11 20:28N 34°41' E 135°15'0 0.0
2017-Oct-11 19:58N 34°41' E 135°15'0 0.0
2017-Oct-11 19:22N 34°41' E 135°15'0 0.0
2017-Oct-11 18:58N 34°41' E 135°15'0 0.0
2017-Oct-11 18:10N 34°41' E 135°15'0 0.0
2017-Oct-11 17:58N 34°41' E 135°15'0 0.0
2017-Oct-11 17:28N 34°41' E 135°15'0 0.0
2017-Oct-11 16:58N 34°41' E 135°15'9 0.5
2017-Oct-10 23:52N 34°39' E 135°26'0 0.0
2017-Oct-10 23:22N 34°39' E 135°26'0 0.2
2017-Oct-10 23:00N 34°39' E 135°26'1 1.1
2017-Oct-10 22:30N 34°39' E 135°25'4 8.6
2017-Oct-10 22:00N 34°36' E 135°21'510.4
2017-Oct-10 21:30N 34°32' E 135°17'816.7
2017-Oct-10 21:01N 34°27' E 135°09'816.8
2017-Oct-10 20:30N 34°21' E 135°02'714.7
2017-Oct-10 20:00N 34°14' E 134°59'5 9.7
2017-Oct-10 19:30N 34°09' E 134°59'3 6.2
2017-Oct-10 18:59N 34°05' E 134°58'0 1.0
2017-Oct-10 18:29N 34°05' E 134°58'1 2.8
2017-Oct-10 17:58N 34°04' E 134°58'  
2017-Oct-08 05:30N 24°30' E 118°45'713.2
2017-Oct-08 05:00N 24°27' E 118°39'713.3
2017-Oct-08 04:27N 24°23' E 118°32'613.8
2017-Oct-08 04:00N 24°20' E 118°26'714.6
2017-Oct-08 03:30N 24°21' E 118°18'715.0
2017-Oct-08 03:00N 24°20' E 118°10'611.4
2017-Oct-08 02:30N 24°24' E 118°06'4 8.4
2017-Oct-08 02:00N 24°28' E 118°03'4 7.3
2017-Oct-08 01:30N 24°31' E 118°05'0 0.2
2017-Oct-08 00:56N 24°31' E 118°05'0 0.0
2017-Oct-08 00:26N 24°31' E 118°05'0 0.0
2017-Oct-07 23:56N 24°31' E 118°05'0 0.0
2017-Oct-07 23:23N 24°31' E 118°05'0 0.0
2017-Oct-07 22:56N 24°31' E 118°05'0 0.0
2017-Oct-07 22:29N 24°31' E 118°05'0 0.0
2017-Oct-07 21:56N 24°31' E 118°05'0 0.0
2017-Oct-07 21:26N 24°31' E 118°05'0 0.0
2017-Oct-07 20:59N 24°31' E 118°05'0 0.0
2017-Oct-07 20:23N 24°31' E 118°05'0 0.0
2017-Oct-07 19:59N 24°31' E 118°05'0 0.0
2017-Oct-07 19:29N 24°31' E 118°05'0 0.0
2017-Oct-07 18:59N 24°31' E 118°05'0 0.0
2017-Oct-07 18:20N 24°31' E 118°05'0 0.0
2017-Oct-07 17:56N 24°31' E 118°05'0 0.0
2017-Oct-07 17:29N 24°31' E 118°05'0 0.0
2017-Oct-07 16:56N 24°31' E 118°05'0 0.0
2017-Oct-07 16:20N 24°31' E 118°05'0 0.0
2017-Oct-07 15:56N 24°31' E 118°05'0 0.0
2017-Oct-07 15:26N 24°31' E 118°05'0 0.0
2017-Oct-07 14:50N 24°31' E 118°05'0 0.0
2017-Oct-07 11:23N 24°31' E 118°05'0 0.0
2017-Oct-07 09:56N 24°31' E 118°05'0 0.0
2017-Oct-07 09:29N 24°31' E 118°05'0 0.0
2017-Oct-07 09:00N 24°31' E 118°05'2 4.1
2017-Oct-07 08:30N 24°29' E 118°04'5 9.0
2017-Oct-07 08:00N 24°25' E 118°05'5 9.2
2017-Oct-07 07:31N 24°22' E 118°09'4 7.7
2017-Oct-07 07:01N 24°19' E 118°11'510.9
2017-Oct-07 06:30N 24°15' E 118°15'714.2
2017-Oct-07 06:00N 24°09' E 118°11'714.6
2017-Oct-07 05:30N 24°03' E 118°07'714.7
2017-Oct-07 05:00N 23°57' E 118°03'  
Track history (hours):
 
Tides and Currents Weather Stations Pressure Air Temp Water Temp Dewpoint Dewpoint Depression Visibility Wind Speed Wind Dir Waves Ship Positions

Wan Hai 267

Last reported at 2017-Oct-15 00:48 UTC. Time now 2017-Oct-17 16:54 UTC.
Position N 34°52' E 139°20'.

Length 198 m; draft 9.1 m.

Type: Cargo ship. MMSI: 564527118.

Date/timePositionNaut miles runAvg speedWind from/ knotsBaromVisibWave heightAir tempDewpointWater temp
2017-Oct-15 00:48N 34°52' E 139°20'515.4
2017-Oct-15 00:30N 34°55' E 139°24'816.2
2017-Oct-15 00:00N 35°00' E 139°32'917.7
2017-Oct-14 23:30N 35°05' E 139°40'815.2
2017-Oct-14 23:00N 35°12' E 139°46'611.4
2017-Oct-14 22:31N 35°17' E 139°45'612.5
2017-Oct-14 22:01N 35°23' E 139°42'814.9
2017-Oct-14 21:30N 35°28' E 139°49'612.2
2017-Oct-14 21:00N 35°34' E 139°48'2 0.2
2017-Oct-14 08:56N 35°36' E 139°46'3 6.0
2017-Oct-14 08:29N 35°34' E 139°49'611.7
2017-Oct-14 08:00N 35°30' E 139°53'613.0
2017-Oct-14 07:31N 35°26' E 139°47'5 8.5
2017-Oct-14 06:58N 35°27' E 139°41'0 0.4
2017-Oct-14 06:28N 35°26' E 139°41'0 0.0
2017-Oct-14 05:58N 35°26' E 139°41'0 0.0
2017-Oct-14 05:28N 35°26' E 139°41'0 0.0
2017-Oct-14 04:58N 35°26' E 139°41'0 0.0
2017-Oct-14 04:28N 35°26' E 139°41'0 0.0
2017-Oct-14 03:58N 35°26' E 139°41'0 0.0
2017-Oct-14 03:28N 35°26' E 139°41'0 0.0
2017-Oct-14 02:58N 35°26' E 139°41'0 0.0
2017-Oct-14 02:28N 35°26' E 139°41'0 0.0
2017-Oct-14 01:58N 35°26' E 139°41'0 0.0
2017-Oct-14 01:28N 35°26' E 139°41'0 0.0
2017-Oct-14 00:58N 35°26' E 139°41'0 0.0
2017-Oct-14 00:28N 35°26' E 139°41'0 0.0
2017-Oct-13 23:58N 35°26' E 139°41'0 0.0
2017-Oct-13 23:28N 35°26' E 139°41'0 0.0
2017-Oct-13 22:58N 35°26' E 139°41'1 2.2
2017-Oct-13 22:30N 35°26' E 139°42'4 8.3
2017-Oct-13 22:00N 35°22' E 139°43'249 5.4
2017-Oct-12 00:11N 34°02' E 134°57'517.6
2017-Oct-11 23:54N 34°07' E 134°56'615.6
2017-Oct-11 23:30N 34°13' E 134°58'612.8
2017-Oct-11 23:00N 34°20' E 134°59'816.8
2017-Oct-11 22:30N 34°26' E 135°06'917.7
2017-Oct-11 22:00N 34°32' E 135°13'612.0
2017-Oct-11 21:30N 34°37' E 135°16'4 6.7
2017-Oct-11 20:58N 34°41' E 135°15'0 0.0
2017-Oct-11 20:28N 34°41' E 135°15'0 0.0
2017-Oct-11 19:58N 34°41' E 135°15'0 0.0
2017-Oct-11 19:22N 34°41' E 135°15'0 0.0
2017-Oct-11 18:58N 34°41' E 135°15'0 0.0
2017-Oct-11 18:10N 34°41' E 135°15'0 0.0
2017-Oct-11 17:58N 34°41' E 135°15'0 0.0
2017-Oct-11 17:28N 34°41' E 135°15'0 0.0
2017-Oct-11 16:58N 34°41' E 135°15'9 0.5
2017-Oct-10 23:52N 34°39' E 135°26'0 0.0
2017-Oct-10 23:22N 34°39' E 135°26'0 0.2
2017-Oct-10 23:00N 34°39' E 135°26'1 1.1
2017-Oct-10 22:30N 34°39' E 135°25'4 8.6
2017-Oct-10 22:00N 34°36' E 135°21'510.4
2017-Oct-10 21:30N 34°32' E 135°17'816.7
2017-Oct-10 21:01N 34°27' E 135°09'816.8
2017-Oct-10 20:30N 34°21' E 135°02'714.7
2017-Oct-10 20:00N 34°14' E 134°59'5 9.7
2017-Oct-10 19:30N 34°09' E 134°59'3 6.2
2017-Oct-10 18:59N 34°05' E 134°58'0 1.0
2017-Oct-10 18:29N 34°05' E 134°58'1 2.8
2017-Oct-10 17:58N 34°04' E 134°58'  
2017-Oct-08 05:30N 24°30' E 118°45'713.2
2017-Oct-08 05:00N 24°27' E 118°39'713.3
2017-Oct-08 04:27N 24°23' E 118°32'613.8
2017-Oct-08 04:00N 24°20' E 118°26'714.6
2017-Oct-08 03:30N 24°21' E 118°18'715.0
2017-Oct-08 03:00N 24°20' E 118°10'611.4
2017-Oct-08 02:30N 24°24' E 118°06'4 8.4
2017-Oct-08 02:00N 24°28' E 118°03'4 7.3
2017-Oct-08 01:30N 24°31' E 118°05'0 0.2
2017-Oct-08 00:56N 24°31' E 118°05'0 0.0
2017-Oct-08 00:26N 24°31' E 118°05'0 0.0
2017-Oct-07 23:56N 24°31' E 118°05'0 0.0
2017-Oct-07 23:23N 24°31' E 118°05'0 0.0
2017-Oct-07 22:56N 24°31' E 118°05'0 0.0
2017-Oct-07 22:29N 24°31' E 118°05'0 0.0
2017-Oct-07 21:56N 24°31' E 118°05'0 0.0
2017-Oct-07 21:26N 24°31' E 118°05'0 0.0
2017-Oct-07 20:59N 24°31' E 118°05'0 0.0
2017-Oct-07 20:23N 24°31' E 118°05'0 0.0
2017-Oct-07 19:59N 24°31' E 118°05'0 0.0
2017-Oct-07 19:29N 24°31' E 118°05'0 0.0
2017-Oct-07 18:59N 24°31' E 118°05'0 0.0
2017-Oct-07 18:20N 24°31' E 118°05'0 0.0
2017-Oct-07 17:56N 24°31' E 118°05'0 0.0
2017-Oct-07 17:29N 24°31' E 118°05'0 0.0
2017-Oct-07 16:56N 24°31' E 118°05'0 0.0
2017-Oct-07 16:20N 24°31' E 118°05'0 0.0
2017-Oct-07 15:56N 24°31' E 118°05'0 0.0
2017-Oct-07 15:26N 24°31' E 118°05'0 0.0
2017-Oct-07 14:50N 24°31' E 118°05'0 0.0
2017-Oct-07 11:23N 24°31' E 118°05'0 0.0
2017-Oct-07 09:56N 24°31' E 118°05'0 0.0
2017-Oct-07 09:29N 24°31' E 118°05'0 0.0
2017-Oct-07 09:00N 24°31' E 118°05'2 4.1
2017-Oct-07 08:30N 24°29' E 118°04'5 9.0
2017-Oct-07 08:00N 24°25' E 118°05'5 9.2
2017-Oct-07 07:31N 24°22' E 118°09'4 7.7
2017-Oct-07 07:01N 24°19' E 118°11'510.9
2017-Oct-07 06:30N 24°15' E 118°15'714.2
2017-Oct-07 06:00N 24°09' E 118°11'714.6
2017-Oct-07 05:30N 24°03' E 118°07'714.7
2017-Oct-07 05:00N 23°57' E 118°03'  

Dump ship's entire track history